sensor_id;sensor_type;location;lat;lon;timestamp;pressure;altitude;pressure_sealevel;temperature
31921;BMP280;66485;52.128;4.436;2023-02-03T00:00:34;102584.25;;;16.90
31921;BMP280;66485;52.128;4.436;2023-02-03T00:02:59;102577.31;;;16.93
31921;BMP280;66485;52.128;4.436;2023-02-03T00:05:25;102580.38;;;16.91
31921;BMP280;66485;52.128;4.436;2023-02-03T00:07:50;102584.16;;;16.87
31921;BMP280;66485;52.128;4.436;2023-02-03T00:10:16;102573.41;;;16.90
31921;BMP280;66485;52.128;4.436;2023-02-03T00:12:49;102576.47;;;16.89
31921;BMP280;66485;52.128;4.436;2023-02-03T00:15:15;102576.47;;;16.89
31921;BMP280;66485;52.128;4.436;2023-02-03T00:17:40;102591.84;;;16.85
31921;BMP280;66485;52.128;4.436;2023-02-03T00:20:06;102584.50;;;16.85
31921;BMP280;66485;52.128;4.436;2023-02-03T00:22:32;102589.09;;;16.81
31921;BMP280;66485;52.128;4.436;2023-02-03T00:24:57;102582.53;;;16.82
31921;BMP280;66485;52.128;4.436;2023-02-03T00:27:22;102583.97;;;16.76
31921;BMP280;66485;52.128;4.436;2023-02-03T00:29:47;102584.75;;;16.77
31921;BMP280;66485;52.128;4.436;2023-02-03T00:32:13;102589.28;;;16.69
31921;BMP280;66485;52.128;4.436;2023-02-03T00:34:38;102606.28;;;16.70
31921;BMP280;66485;52.128;4.436;2023-02-03T00:37:03;102596.63;;;16.69
31921;BMP280;66485;52.128;4.436;2023-02-03T00:39:28;102594.97;;;16.64
31921;BMP280;66485;52.128;4.436;2023-02-03T00:41:54;102605.84;;;16.67
31921;BMP280;66485;52.128;4.436;2023-02-03T00:44:19;102613.19;;;16.67
31921;BMP280;66485;52.128;4.436;2023-02-03T00:46:44;102614.47;;;16.73
31921;BMP280;66485;52.128;4.436;2023-02-03T00:49:10;102591.81;;;16.81
31921;BMP280;66485;52.128;4.436;2023-02-03T00:51:35;102591.81;;;16.81
31921;BMP280;66485;52.128;4.436;2023-02-03T00:54:00;102599.97;;;16.85
31921;BMP280;66485;52.128;4.436;2023-02-03T00:56:25;102599.97;;;16.85
31921;BMP280;66485;52.128;4.436;2023-02-03T00:58:51;102578.31;;;16.85
31921;BMP280;66485;52.128;4.436;2023-02-03T01:01:16;102578.31;;;16.85
31921;BMP280;66485;52.128;4.436;2023-02-03T01:03:41;102580.28;;;16.84
31921;BMP280;66485;52.128;4.436;2023-02-03T01:06:18;102580.28;;;16.84
31921;BMP280;66485;52.128;4.436;2023-02-03T01:08:44;102617.66;;;16.79
31921;BMP280;66485;52.128;4.436;2023-02-03T01:11:12;102600.19;;;16.76
31921;BMP280;66485;52.128;4.436;2023-02-03T01:13:38;102593.97;;;16.72
31921;BMP280;66485;52.128;4.436;2023-02-03T01:16:06;102594.69;;;16.69
31921;BMP280;66485;52.128;4.436;2023-02-03T01:18:32;102598.94;;;16.70
31921;BMP280;66485;52.128;4.436;2023-02-03T01:20:57;102582.72;;;16.70
31921;BMP280;66485;52.128;4.436;2023-02-03T01:23:22;102582.72;;;16.70
31921;BMP280;66485;52.128;4.436;2023-02-03T01:25:48;102573.31;;;16.64
31921;BMP280;66485;52.128;4.436;2023-02-03T01:28:13;102543.50;;;16.60
31921;BMP280;66485;52.128;4.436;2023-02-03T01:30:38;102543.50;;;16.60
31921;BMP280;66485;52.128;4.436;2023-02-03T01:33:04;102546.97;;;16.61
31921;BMP280;66485;52.128;4.436;2023-02-03T01:35:29;102565.34;;;16.71
31921;BMP280;66485;52.128;4.436;2023-02-03T01:37:54;102565.34;;;16.71
31921;BMP280;66485;52.128;4.436;2023-02-03T01:40:20;102567.81;;;16.80
31921;BMP280;66485;52.128;4.436;2023-02-03T01:42:45;102551.56;;;16.80
31921;BMP280;66485;52.128;4.436;2023-02-03T01:45:10;102579.50;;;16.84
31921;BMP280;66485;52.128;4.436;2023-02-03T01:47:43;102561.31;;;16.84
31921;BMP280;66485;52.128;4.436;2023-02-03T01:52:50;102564.66;;;16.78
31921;BMP280;66485;52.128;4.436;2023-02-03T01:55:20;102564.66;;;16.78
31921;BMP280;66485;52.128;4.436;2023-02-03T01:58:03;102553.13;;;16.81
31921;BMP280;66485;52.128;4.436;2023-02-03T02:00:30;102552.03;;;16.85
31921;BMP280;66485;52.128;4.436;2023-02-03T02:02:58;102552.03;;;16.85
31921;BMP280;66485;52.128;4.436;2023-02-03T02:05:28;102529.66;;;16.88
31921;BMP280;66485;52.128;4.436;2023-02-03T02:07:55;102536.47;;;17.01
31921;BMP280;66485;52.128;4.436;2023-02-03T02:10:21;102541.41;;;16.96
31921;BMP280;66485;52.128;4.436;2023-02-03T02:12:47;102543.38;;;16.99
31921;BMP280;66485;52.128;4.436;2023-02-03T02:15:12;102527.84;;;16.96
31921;BMP280;66485;52.128;4.436;2023-02-03T02:29:37;102536.28;;;16.91
31921;BMP280;66485;52.128;4.436;2023-02-03T02:32:22;102536.66;;;16.89
31921;BMP280;66485;52.128;4.436;2023-02-03T02:37:36;102532.69;;;16.83
31921;BMP280;66485;52.128;4.436;2023-02-03T02:40:22;102538.81;;;16.80
31921;BMP280;66485;52.128;4.436;2023-02-03T02:48:41;102541.03;;;16.75
31921;BMP280;66485;52.128;4.436;2023-02-03T02:51:10;102537.56;;;16.74
31921;BMP280;66485;52.128;4.436;2023-02-03T02:53:48;102542.91;;;16.71
31921;BMP280;66485;52.128;4.436;2023-02-03T02:56:16;102544.75;;;16.66
31921;BMP280;66485;52.128;4.436;2023-02-03T02:58:44;102518.94;;;16.69
31921;BMP280;66485;52.128;4.436;2023-02-03T03:01:12;102518.94;;;16.69
31921;BMP280;66485;52.128;4.436;2023-02-03T03:03:37;102500.56;;;16.82
31921;BMP280;66485;52.128;4.436;2023-02-03T03:06:17;102500.56;;;16.82
31921;BMP280;66485;52.128;4.436;2023-02-03T03:09:03;102502.97;;;16.87
31921;BMP280;66485;52.128;4.436;2023-02-03T03:11:32;102533.16;;;16.89
31921;BMP280;66485;52.128;4.436;2023-02-03T03:14:01;102516.44;;;16.83
31921;BMP280;66485;52.128;4.436;2023-02-03T03:16:31;102516.06;;;16.85
31921;BMP280;66485;52.128;4.436;2023-02-03T03:19:01;102521.88;;;16.83
31921;BMP280;66485;52.128;4.436;2023-02-03T03:21:34;102521.47;;;16.85
31921;BMP280;66485;52.128;4.436;2023-02-03T03:24:07;102521.47;;;16.85
31921;BMP280;66485;52.128;4.436;2023-02-03T03:26:51;102511.69;;;16.77
31921;BMP280;66485;52.128;4.436;2023-02-03T03:32:01;102508.94;;;16.73
31921;BMP280;66485;52.128;4.436;2023-02-03T03:34:28;102539.84;;;16.72
31921;BMP280;66485;52.128;4.436;2023-02-03T03:37:02;102518.16;;;16.69
31921;BMP280;66485;52.128;4.436;2023-02-03T03:39:46;102518.16;;;16.69
31921;BMP280;66485;52.128;4.436;2023-02-03T03:42:21;102512.22;;;16.63
31921;BMP280;66485;52.128;4.436;2023-02-03T03:45:14;102513.81;;;16.64
31921;BMP280;66485;52.128;4.436;2023-02-03T03:48:10;102524.16;;;16.58
31921;BMP280;66485;52.128;4.436;2023-02-03T03:50:42;102525.63;;;16.56
31921;BMP280;66485;52.128;4.436;2023-02-03T03:53:10;102501.72;;;16.58
31921;BMP280;66485;52.128;4.436;2023-02-03T03:55:38;102518.03;;;16.65
31921;BMP280;66485;52.128;4.436;2023-02-03T03:58:09;102518.03;;;16.65
31921;BMP280;66485;52.128;4.436;2023-02-03T04:00:38;102529.84;;;16.76
31921;BMP280;66485;52.128;4.436;2023-02-03T04:03:10;102529.84;;;16.76
31921;BMP280;66485;52.128;4.436;2023-02-03T04:05:37;102519.88;;;16.80
31921;BMP280;66485;52.128;4.436;2023-02-03T04:08:03;102530.69;;;16.80
31921;BMP280;66485;52.128;4.436;2023-02-03T04:10:34;102528.00;;;16.80
31921;BMP280;66485;52.128;4.436;2023-02-03T04:13:00;102545.41;;;16.79
31921;BMP280;66485;52.128;4.436;2023-02-03T04:15:26;102543.81;;;16.78
31921;BMP280;66485;52.128;4.436;2023-02-03T04:17:52;102527.56;;;16.78
31921;BMP280;66485;52.128;4.436;2023-02-03T04:20:19;102527.56;;;16.78
31921;BMP280;66485;52.128;4.436;2023-02-03T04:22:44;102530.59;;;16.73
31921;BMP280;66485;52.128;4.436;2023-02-03T04:25:10;102531.72;;;16.72
31921;BMP280;66485;52.128;4.436;2023-02-03T04:27:35;102520.47;;;16.70
31921;BMP280;66485;52.128;4.436;2023-02-03T04:30:01;102526.28;;;16.69
31921;BMP280;66485;52.128;4.436;2023-02-03T04:32:26;102516.09;;;16.62
31921;BMP280;66485;52.128;4.436;2023-02-03T04:34:52;102527.34;;;16.64
31921;BMP280;66485;52.128;4.436;2023-02-03T04:37:17;102531.88;;;16.60
31921;BMP280;66485;52.128;4.436;2023-02-03T04:39:42;102529.47;;;16.55
31921;BMP280;66485;52.128;4.436;2023-02-03T04:42:08;102524.03;;;16.55
31921;BMP280;66485;52.128;4.436;2023-02-03T04:44:33;102530.34;;;16.59
31921;BMP280;66485;52.128;4.436;2023-02-03T04:46:58;102557.94;;;16.68
31921;BMP280;66485;52.128;4.436;2023-02-03T04:49:23;102561.91;;;16.74
31921;BMP280;66485;52.128;4.436;2023-02-03T04:51:49;102550.34;;;16.77
31921;BMP280;66485;52.128;4.436;2023-02-03T04:54:14;102550.81;;;16.79
31921;BMP280;66485;52.128;4.436;2023-02-03T04:56:40;102550.81;;;16.79
31921;BMP280;66485;52.128;4.436;2023-02-03T04:59:05;102538.38;;;16.78
31921;BMP280;66485;52.128;4.436;2023-02-03T05:01:31;102543.81;;;16.78
31921;BMP280;66485;52.128;4.436;2023-02-03T05:03:56;102519.00;;;16.76
31921;BMP280;66485;52.128;4.436;2023-02-03T05:06:25;102526.72;;;16.74
31921;BMP280;66485;52.128;4.436;2023-02-03T05:08:51;102532.19;;;16.78
31921;BMP280;66485;52.128;4.436;2023-02-03T05:11:17;102533.84;;;16.82
31921;BMP280;66485;52.128;4.436;2023-02-03T05:13:42;102546.34;;;16.90
31921;BMP280;66485;52.128;4.436;2023-02-03T05:16:07;102540.59;;;16.95
31921;BMP280;66485;52.128;4.436;2023-02-03T05:18:33;102534.00;;;16.93
31921;BMP280;66485;52.128;4.436;2023-02-03T05:20:58;102537.13;;;16.95
31921;BMP280;66485;52.128;4.436;2023-02-03T05:23:23;102534.84;;;16.97
31921;BMP280;66485;52.128;4.436;2023-02-03T05:25:49;102533.22;;;16.92
31921;BMP280;66485;52.128;4.436;2023-02-03T05:28:14;102533.22;;;16.92
31921;BMP280;66485;52.128;4.436;2023-02-03T05:30:39;102524.25;;;16.88
31921;BMP280;66485;52.128;4.436;2023-02-03T05:33:05;102539.34;;;16.89
31921;BMP280;66485;52.128;4.436;2023-02-03T05:35:30;102549.34;;;16.85
31921;BMP280;66485;52.128;4.436;2023-02-03T05:37:55;102540.81;;;16.83
31921;BMP280;66485;52.128;4.436;2023-02-03T05:40:21;102530.69;;;16.80
31921;BMP280;66485;52.128;4.436;2023-02-03T05:43:05;102529.16;;;16.79
31921;BMP280;66485;52.128;4.436;2023-02-03T05:45:30;102524.50;;;16.80
31921;BMP280;66485;52.128;4.436;2023-02-03T05:47:55;102520.53;;;16.74
31921;BMP280;66485;52.128;4.436;2023-02-03T05:50:21;102525.22;;;16.77
31921;BMP280;66485;52.128;4.436;2023-02-03T05:52:47;102525.22;;;16.77
31921;BMP280;66485;52.128;4.436;2023-02-03T05:55:12;102534.28;;;16.65
31921;BMP280;66485;52.128;4.436;2023-02-03T05:57:38;102524.19;;;16.62
31921;BMP280;66485;52.128;4.436;2023-02-03T06:00:03;102543.91;;;16.62
31921;BMP280;66485;52.128;4.436;2023-02-03T06:02:30;102548.91;;;16.60
31921;BMP280;66485;52.128;4.436;2023-02-03T06:04:55;102550.13;;;16.63
31921;BMP280;66485;52.128;4.436;2023-02-03T06:07:20;102535.28;;;16.57
31921;BMP280;66485;52.128;4.436;2023-02-03T06:09:46;102548.25;;;16.67
31921;BMP280;66485;52.128;4.436;2023-02-03T06:12:11;102551.44;;;16.73
31921;BMP280;66485;52.128;4.436;2023-02-03T06:14:37;102543.38;;;16.76
31921;BMP280;66485;52.128;4.436;2023-02-03T06:17:02;102531.41;;;16.77
31921;BMP280;66485;52.128;4.436;2023-02-03T06:19:27;102527.91;;;16.77
31921;BMP280;66485;52.128;4.436;2023-02-03T06:21:52;102531.41;;;16.77
31921;BMP280;66485;52.128;4.436;2023-02-03T06:24:18;102523.66;;;16.76
31921;BMP280;66485;52.128;4.436;2023-02-03T06:26:43;102539.09;;;16.75
31921;BMP280;66485;52.128;4.436;2023-02-03T06:29:08;102556.03;;;16.69
31921;BMP280;66485;52.128;4.436;2023-02-03T06:31:33;102559.06;;;16.67
31921;BMP280;66485;52.128;4.436;2023-02-03T06:33:59;102558.44;;;16.74
31921;BMP280;66485;52.128;4.436;2023-02-03T06:36:26;102558.44;;;16.74
31921;BMP280;66485;52.128;4.436;2023-02-03T06:38:51;102558.63;;;16.65
31921;BMP280;66485;52.128;4.436;2023-02-03T06:41:17;102571.34;;;16.61
31921;BMP280;66485;52.128;4.436;2023-02-03T06:43:42;102559.31;;;16.58
31921;BMP280;66485;52.128;4.436;2023-02-03T06:46:07;102561.66;;;16.60
31921;BMP280;66485;52.128;4.436;2023-02-03T06:48:33;102575.56;;;16.58
31921;BMP280;66485;52.128;4.436;2023-02-03T06:50:58;102575.56;;;16.58
31921;BMP280;66485;52.128;4.436;2023-02-03T06:53:23;102592.78;;;16.50
31921;BMP280;66485;52.128;4.436;2023-02-03T06:55:49;102596.31;;;16.54
31921;BMP280;66485;52.128;4.436;2023-02-03T06:58:14;102595.91;;;16.52
31921;BMP280;66485;52.128;4.436;2023-02-03T07:00:40;102591.28;;;16.53
31921;BMP280;66485;52.128;4.436;2023-02-03T07:03:05;102591.28;;;16.53
31921;BMP280;66485;52.128;4.436;2023-02-03T07:05:30;102595.38;;;16.66
31921;BMP280;66485;52.128;4.436;2023-02-03T07:07:56;102590.81;;;16.70
31921;BMP280;66485;52.128;4.436;2023-02-03T07:10:21;102590.81;;;16.70
31921;BMP280;66485;52.128;4.436;2023-02-03T07:12:47;102599.38;;;16.72
31921;BMP280;66485;52.128;4.436;2023-02-03T07:15:14;102610.97;;;16.73
31921;BMP280;66485;52.128;4.436;2023-02-03T07:17:40;102614.75;;;16.68
31921;BMP280;66485;52.128;4.436;2023-02-03T07:20:06;102612.13;;;16.72
31921;BMP280;66485;52.128;4.436;2023-02-03T07:22:32;102609.69;;;16.66
31921;BMP280;66485;52.128;4.436;2023-02-03T07:24:57;102611.63;;;16.66
31921;BMP280;66485;52.128;4.436;2023-02-03T07:27:22;102602.88;;;16.73
31921;BMP280;66485;52.128;4.436;2023-02-03T07:29:48;102598.00;;;16.82
31921;BMP280;66485;52.128;4.436;2023-02-03T07:32:13;102610.03;;;16.84
31921;BMP280;66485;52.128;4.436;2023-02-03T07:34:39;102615.84;;;16.86
31921;BMP280;66485;52.128;4.436;2023-02-03T07:37:04;102615.84;;;16.86
31921;BMP280;66485;52.128;4.436;2023-02-03T07:39:29;102603.53;;;16.89
31921;BMP280;66485;52.128;4.436;2023-02-03T07:41:55;102598.78;;;16.82
31921;BMP280;66485;52.128;4.436;2023-02-03T07:44:20;102606.94;;;16.86
31921;BMP280;66485;52.128;4.436;2023-02-03T07:46:45;102615.06;;;16.86
31921;BMP280;66485;52.128;4.436;2023-02-03T07:49:11;102617.75;;;16.82
31921;BMP280;66485;52.128;4.436;2023-02-03T07:51:36;102617.31;;;16.80
31921;BMP280;66485;52.128;4.436;2023-02-03T07:54:02;102603.00;;;16.80
31921;BMP280;66485;52.128;4.436;2023-02-03T07:56:28;102617.97;;;16.74
31921;BMP280;66485;52.128;4.436;2023-02-03T07:58:54;102631.06;;;16.72
31921;BMP280;66485;52.128;4.436;2023-02-03T08:01:20;102630.06;;;16.80
31921;BMP280;66485;52.128;4.436;2023-02-03T08:03:45;102632.19;;;16.71
31921;BMP280;66485;52.128;4.436;2023-02-03T08:06:11;102632.19;;;16.71
31921;BMP280;66485;52.128;4.436;2023-02-03T08:08:36;102638.66;;;16.66
31921;BMP280;66485;52.128;4.436;2023-02-03T08:11:01;102648.72;;;16.65
31921;BMP280;66485;52.128;4.436;2023-02-03T08:13:27;102648.72;;;16.65
31921;BMP280;66485;52.128;4.436;2023-02-03T08:15:52;102645.53;;;16.60
31921;BMP280;66485;52.128;4.436;2023-02-03T08:18:18;102643.69;;;16.64
31921;BMP280;66485;52.128;4.436;2023-02-03T08:20:46;102665.25;;;16.60
31921;BMP280;66485;52.128;4.436;2023-02-03T08:23:12;102660.47;;;16.73
31921;BMP280;66485;52.128;4.436;2023-02-03T08:25:37;102660.63;;;16.80
31921;BMP280;66485;52.128;4.436;2023-02-03T08:28:03;102651.00;;;16.83
31921;BMP280;66485;52.128;4.436;2023-02-03T08:30:28;102659.91;;;16.83
31921;BMP280;66485;52.128;4.436;2023-02-03T08:32:54;102664.53;;;16.83
31921;BMP280;66485;52.128;4.436;2023-02-03T08:35:19;102667.72;;;16.88
31921;BMP280;66485;52.128;4.436;2023-02-03T08:37:44;102667.72;;;16.88
31921;BMP280;66485;52.128;4.436;2023-02-03T08:40:10;102667.72;;;16.88
31921;BMP280;66485;52.128;4.436;2023-02-03T08:42:36;102676.63;;;16.89
31921;BMP280;66485;52.128;4.436;2023-02-03T08:45:01;102677.34;;;16.86
31921;BMP280;66485;52.128;4.436;2023-02-03T08:47:27;102662.19;;;16.81
31921;BMP280;66485;52.128;4.436;2023-02-03T08:49:52;102680.78;;;16.83
31921;BMP280;66485;52.128;4.436;2023-02-03T08:52:18;102689.69;;;16.83
31921;BMP280;66485;52.128;4.436;2023-02-03T08:54:43;102691.09;;;16.77
31921;BMP280;66485;52.128;4.436;2023-02-03T08:57:09;102691.09;;;16.77
31921;BMP280;66485;52.128;4.436;2023-02-03T08:59:37;102685.97;;;16.72
31921;BMP280;66485;52.128;4.436;2023-02-03T09:02:04;102697.22;;;16.74
31921;BMP280;66485;52.128;4.436;2023-02-03T09:04:30;102697.22;;;16.74
31921;BMP280;66485;52.128;4.436;2023-02-03T09:06:58;102699.16;;;16.74
31921;BMP280;66485;52.128;4.436;2023-02-03T09:09:23;102699.16;;;16.74
31921;BMP280;66485;52.128;4.436;2023-02-03T09:11:50;102700.56;;;16.67
31921;BMP280;66485;52.128;4.436;2023-02-03T09:14:16;102706.41;;;16.70
31921;BMP280;66485;52.128;4.436;2023-02-03T09:16:41;102696.44;;;16.74
31921;BMP280;66485;52.128;4.436;2023-02-03T09:19:07;102704.00;;;16.84
31921;BMP280;66485;52.128;4.436;2023-02-03T09:21:32;102699.50;;;16.91
31921;BMP280;66485;52.128;4.436;2023-02-03T09:24:02;102699.50;;;16.91
31921;BMP280;66485;52.128;4.436;2023-02-03T09:26:27;102703.47;;;16.97
31921;BMP280;66485;52.128;4.436;2023-02-03T09:28:53;102705.56;;;17.04
31921;BMP280;66485;52.128;4.436;2023-02-03T09:31:18;102721.00;;;17.03
31921;BMP280;66485;52.128;4.436;2023-02-03T09:33:44;102707.84;;;17.02
31921;BMP280;66485;52.128;4.436;2023-02-03T09:36:10;102707.84;;;17.02
31921;BMP280;66485;52.128;4.436;2023-02-03T09:38:36;102711.59;;;16.97
31921;BMP280;66485;52.128;4.436;2023-02-03T09:41:53;102711.59;;;16.97
31921;BMP280;66485;52.128;4.436;2023-02-03T09:44:43;102706.53;;;16.96
31921;BMP280;66485;52.128;4.436;2023-02-03T09:47:24;102722.78;;;16.96
31921;BMP280;66485;52.128;4.436;2023-02-03T09:49:55;102734.38;;;16.96
31921;BMP280;66485;52.128;4.436;2023-02-03T09:52:24;102742.47;;;16.93
31921;BMP280;66485;52.128;4.436;2023-02-03T09:55:02;102740.09;;;16.91
31921;BMP280;66485;52.128;4.436;2023-02-03T09:57:39;102761.75;;;16.91
31921;BMP280;66485;52.128;4.436;2023-02-03T10:00:18;102763.34;;;16.92
31921;BMP280;66485;52.128;4.436;2023-02-03T10:02:55;102763.34;;;16.92
31921;BMP280;66485;52.128;4.436;2023-02-03T10:08:28;102760.53;;;16.89
31921;BMP280;66485;52.128;4.436;2023-02-03T10:18:54;102788.91;;;17.14
31921;BMP280;66485;52.128;4.436;2023-02-03T10:21:41;102788.91;;;17.14
31921;BMP280;66485;52.128;4.436;2023-02-03T10:24:13;102772.16;;;17.09
31921;BMP280;66485;52.128;4.436;2023-02-03T10:26:40;102776.88;;;17.12
31921;BMP280;66485;52.128;4.436;2023-02-03T10:29:26;102776.88;;;17.12
31921;BMP280;66485;52.128;4.436;2023-02-03T10:31:53;102768.66;;;17.08
31921;BMP280;66485;52.128;4.436;2023-02-03T10:34:19;102797.66;;;17.08
31921;BMP280;66485;52.128;4.436;2023-02-03T10:39:28;102814.69;;;17.08
31921;BMP280;66485;52.128;4.436;2023-02-03T10:41:55;102802.72;;;17.09
31921;BMP280;66485;52.128;4.436;2023-02-03T10:44:26;102802.72;;;17.09
31921;BMP280;66485;52.128;4.436;2023-02-03T10:46:53;102822.47;;;17.10
31921;BMP280;66485;52.128;4.436;2023-02-03T10:49:18;102822.47;;;17.10
31921;BMP280;66485;52.128;4.436;2023-02-03T10:51:53;102808.44;;;17.04
31921;BMP280;66485;52.128;4.436;2023-02-03T10:54:30;102804.59;;;17.05
31921;BMP280;66485;52.128;4.436;2023-02-03T10:57:10;102825.81;;;17.03
31921;BMP280;66485;52.128;4.436;2023-02-03T10:59:41;102825.81;;;17.03
31921;BMP280;66485;52.128;4.436;2023-02-03T11:02:09;102813.44;;;17.02
31921;BMP280;66485;52.128;4.436;2023-02-03T11:04:35;102822.94;;;16.96
31921;BMP280;66485;52.128;4.436;2023-02-03T11:07:04;102831.06;;;16.96
31921;BMP280;66485;52.128;4.436;2023-02-03T11:14:59;102827.22;;;16.97
31921;BMP280;66485;52.128;4.436;2023-02-03T11:17:29;102814.78;;;16.92
31921;BMP280;66485;52.128;4.436;2023-02-03T11:20:11;102832.16;;;16.91
31921;BMP280;66485;52.128;4.436;2023-02-03T11:22:37;102816.25;;;16.90
31921;BMP280;66485;52.128;4.436;2023-02-03T11:25:19;102823.59;;;16.89
31921;BMP280;66485;52.128;4.436;2023-02-03T11:27:46;102822.81;;;16.89
31921;BMP280;66485;52.128;4.436;2023-02-03T11:30:23;102822.81;;;16.89
31921;BMP280;66485;52.128;4.436;2023-02-03T11:32:51;102823.50;;;16.86
31921;BMP280;66485;52.128;4.436;2023-02-03T11:35:20;102827.88;;;16.90
31921;BMP280;66485;52.128;4.436;2023-02-03T11:37:48;102827.88;;;16.90
31921;BMP280;66485;52.128;4.436;2023-02-03T11:42:42;102809.00;;;16.94
31921;BMP280;66485;52.128;4.436;2023-02-03T11:47:52;102814.25;;;17.06
31921;BMP280;66485;52.128;4.436;2023-02-03T11:53:24;102827.81;;;17.06
31921;BMP280;66485;52.128;4.436;2023-02-03T12:02:18;102823.59;;;17.09
31921;BMP280;66485;52.128;4.436;2023-02-03T12:10:31;102814.22;;;17.64
31921;BMP280;66485;52.128;4.436;2023-02-03T12:13:02;102822.34;;;17.87
31921;BMP280;66485;52.128;4.436;2023-02-03T12:18:32;102821.84;;;18.27
31921;BMP280;66485;52.128;4.436;2023-02-03T12:34:48;102837.88;;;18.91
31921;BMP280;66485;52.128;4.436;2023-02-03T12:37:26;102837.88;;;18.91
31921;BMP280;66485;52.128;4.436;2023-02-03T12:39:58;102842.25;;;19.00
31921;BMP280;66485;52.128;4.436;2023-02-03T12:42:30;102842.25;;;19.00
31921;BMP280;66485;52.128;4.436;2023-02-03T12:47:44;102853.56;;;19.05
31921;BMP280;66485;52.128;4.436;2023-02-03T12:50:31;102853.56;;;19.05
31921;BMP280;66485;52.128;4.436;2023-02-03T12:53:30;102857.41;;;19.04
31921;BMP280;66485;52.128;4.436;2023-02-03T12:56:02;102871.00;;;19.04
31921;BMP280;66485;52.128;4.436;2023-02-03T12:58:46;102846.13;;;19.02
31921;BMP280;66485;52.128;4.436;2023-02-03T13:01:35;102842.63;;;19.02
31921;BMP280;66485;52.128;4.436;2023-02-03T13:04:14;102839.53;;;19.00
31921;BMP280;66485;52.128;4.436;2023-02-03T13:12:41;102856.59;;;19.00
31921;BMP280;66485;52.128;4.436;2023-02-03T13:15:29;102858.94;;;19.02
31921;BMP280;66485;52.128;4.436;2023-02-03T13:18:10;102869.78;;;19.02
31921;BMP280;66485;52.128;4.436;2023-02-03T13:20:36;102867.13;;;19.05
31921;BMP280;66485;52.128;4.436;2023-02-03T13:23:06;102867.13;;;19.05
31921;BMP280;66485;52.128;4.436;2023-02-03T13:41:48;102890.09;;;18.81
31921;BMP280;66485;52.128;4.436;2023-02-03T13:44:18;102886.25;;;18.82
31921;BMP280;66485;52.128;4.436;2023-02-03T13:46:47;102890.88;;;18.82
31921;BMP280;66485;52.128;4.436;2023-02-03T13:49:24;102890.06;;;18.78
31921;BMP280;66485;52.128;4.436;2023-02-03T13:51:50;102881.41;;;18.69
31921;BMP280;66485;52.128;4.436;2023-02-03T13:54:36;102889.94;;;18.71
31921;BMP280;66485;52.128;4.436;2023-02-03T13:57:05;102896.88;;;18.65
31921;BMP280;66485;52.128;4.436;2023-02-03T13:59:44;102896.88;;;18.65
31921;BMP280;66485;52.128;4.436;2023-02-03T14:07:32;102905.94;;;18.49
31921;BMP280;66485;52.128;4.436;2023-02-03T14:12:54;102912.06;;;18.46
31921;BMP280;66485;52.128;4.436;2023-02-03T14:17:57;102907.44;;;18.47
31921;BMP280;66485;52.128;4.436;2023-02-03T14:25:42;102920.63;;;18.48
31921;BMP280;66485;52.128;4.436;2023-02-03T14:28:12;102920.63;;;18.48
31921;BMP280;66485;52.128;4.436;2023-02-03T14:31:01;102923.06;;;18.53
31921;BMP280;66485;52.128;4.436;2023-02-03T14:38:59;102929.31;;;18.58
31921;BMP280;66485;52.128;4.436;2023-02-03T14:41:37;102941.47;;;18.64
31921;BMP280;66485;52.128;4.436;2023-02-03T14:47:17;102936.09;;;18.71
31921;BMP280;66485;52.128;4.436;2023-02-03T14:50:22;102945.56;;;18.80
31921;BMP280;66485;52.128;4.436;2023-02-03T14:53:15;102945.56;;;18.80
31921;BMP280;66485;52.128;4.436;2023-02-03T14:56:11;102958.56;;;18.94
31921;BMP280;66485;52.128;4.436;2023-02-03T14:58:44;102953.97;;;18.98
31921;BMP280;66485;52.128;4.436;2023-02-03T15:06:44;102955.50;;;18.96
31921;BMP280;66485;52.128;4.436;2023-02-03T15:09:44;102955.50;;;18.96
31921;BMP280;66485;52.128;4.436;2023-02-03T15:12:19;102946.97;;;18.97
31921;BMP280;66485;52.128;4.436;2023-02-03T15:14:46;102944.97;;;18.94
31921;BMP280;66485;52.128;4.436;2023-02-03T15:17:22;102930.53;;;18.86
31921;BMP280;66485;52.128;4.436;2023-02-03T15:19:48;102954.19;;;18.86
31921;BMP280;66485;52.128;4.436;2023-02-03T15:22:22;102954.19;;;18.86
31921;BMP280;66485;52.128;4.436;2023-02-03T15:24:57;102961.28;;;18.68
31921;BMP280;66485;52.128;4.436;2023-02-03T15:27:25;102960.06;;;18.65
31921;BMP280;66485;52.128;4.436;2023-02-03T15:29:50;102965.94;;;18.67
31921;BMP280;66485;52.128;4.436;2023-02-03T15:32:23;102967.81;;;18.63
31921;BMP280;66485;52.128;4.436;2023-02-03T15:34:51;102965.25;;;18.51
31921;BMP280;66485;52.128;4.436;2023-02-03T15:37:21;102968.72;;;18.48
31921;BMP280;66485;52.128;4.436;2023-02-03T15:39:58;102977.16;;;18.43
31921;BMP280;66485;52.128;4.436;2023-02-03T15:48:03;102976.97;;;18.32
31921;BMP280;66485;52.128;4.436;2023-02-03T15:50:32;102968.41;;;18.30
31921;BMP280;66485;52.128;4.436;2023-02-03T15:53:06;102969.84;;;18.24
31921;BMP280;66485;52.128;4.436;2023-02-03T15:55:58;102979.13;;;18.23
31921;BMP280;66485;52.128;4.436;2023-02-03T15:58:28;102979.13;;;18.23
31921;BMP280;66485;52.128;4.436;2023-02-03T16:00:59;102976.69;;;18.18
31921;BMP280;66485;52.128;4.436;2023-02-03T16:03:35;102973.59;;;18.16
31921;BMP280;66485;52.128;4.436;2023-02-03T16:06:27;102987.47;;;18.11
31921;BMP280;66485;52.128;4.436;2023-02-03T16:08:56;102987.75;;;18.06
31921;BMP280;66485;52.128;4.436;2023-02-03T16:13:50;102981.47;;;18.02
31921;BMP280;66485;52.128;4.436;2023-02-03T16:16:20;102980.25;;;17.99
31921;BMP280;66485;52.128;4.436;2023-02-03T16:19:01;102986.38;;;17.96
31921;BMP280;66485;52.128;4.436;2023-02-03T16:21:35;102986.38;;;17.96
31921;BMP280;66485;52.128;4.436;2023-02-03T16:24:04;102991.75;;;17.93
31921;BMP280;66485;52.128;4.436;2023-02-03T16:26:31;103005.28;;;17.89
31921;BMP280;66485;52.128;4.436;2023-02-03T16:29:27;103005.28;;;17.89
31921;BMP280;66485;52.128;4.436;2023-02-03T16:32:18;103012.09;;;17.83
31921;BMP280;66485;52.128;4.436;2023-02-03T16:35:08;103011.25;;;17.79